Time;durP1;ratioP1;P1;durP2;ratioP2;P2;SDS_P1;SDS_P2;PMS_P1;PMS_P2;Temp;Humidity;BMP_temperature;BMP_pressure;BME280_temperature;BME280_humidity;BME280_pressure;Samples;Min_cycle;Max_cycle;Signal;HPM_P1;HPM_P2
2023/05/10 00:01:24;;;;;;;15.23;7.78;;;;;;;9.74;97.36;99807.19;5031472;28;20036;-75
2023/05/10 00:03:50;;;;;;;9.38;6.30;;;;;;;9.66;96.87;99814.38;5018112;28;20426;-75
2023/05/10 00:06:15;;;;;;;11.63;7.22;;;;;;;9.60;97.50;99798.88;5010748;28;20033;-75
2023/05/10 00:08:41;;;;;;;11.77;7.38;;;;;;;9.59;97.53;99797.25;5011824;28;20025;-74
2023/05/10 00:11:06;;;;;;;12.80;7.82;;;;;;;9.54;96.54;99808.56;5027345;28;20033;-75
2023/05/10 00:13:32;;;;;;;11.35;7.25;;;;;;;9.53;95.94;99806.88;5029429;28;20471;-75
2023/05/10 00:15:57;;;;;;;9.88;7.35;;;;;;;9.60;93.68;99810.06;5023089;28;20033;-74
2023/05/10 00:18:23;;;;;;;8.82;7.72;;;;;;;9.52;93.30;99813.63;5031518;28;20416;-75
2023/05/10 00:20:48;;;;;;;9.73;7.50;;;;;;;9.56;92.67;99809.06;5018433;28;20030;-75
2023/05/10 00:23:14;;;;;;;9.80;7.07;;;;;;;9.58;93.23;99809.56;5011640;28;20072;-75
2023/05/10 00:25:40;;;;;;;11.27;7.95;;;;;;;9.56;91.67;99803.47;5012071;28;20405;-75
2023/05/10 00:28:05;;;;;;;10.48;8.27;;;;;;;9.61;91.14;99806.13;5031535;28;20110;-75
2023/05/10 00:30:31;;;;;;;13.57;8.65;;;;;;;9.52;92.39;99806.06;5023010;28;20030;-75
2023/05/10 00:32:56;;;;;;;12.77;8.77;;;;;;;9.49;91.90;99800.31;5011557;28;20030;-75
2023/05/10 00:35:22;;;;;;;14.98;9.18;;;;;;;9.48;92.11;99807.88;5011484;28;20030;-74
2023/05/10 00:37:47;;;;;;;15.52;9.32;;;;;;;9.49;91.42;99797.50;5024237;28;20026;-75
2023/05/10 00:40:13;;;;;;;13.48;9.88;;;;;;;9.48;92.86;99798.66;5023094;28;20409;-75
2023/05/10 00:42:38;;;;;;;15.25;10.52;;;;;;;9.49;93.08;99820.69;5027348;28;20472;-75
2023/05/10 00:45:04;;;;;;;13.48;9.77;;;;;;;9.50;93.11;99813.13;5030412;28;20480;-75
2023/05/10 00:47:31;;;;;;;14.80;9.30;;;;;;;9.41;95.08;99819.50;5029877;28;20512;-75
2023/05/10 00:49:57;;;;;;;13.23;9.30;;;;;;;9.43;94.98;99818.34;5030833;28;20021;-75
2023/05/10 00:52:23;;;;;;;13.27;10.07;;;;;;;9.44;95.02;99817.19;5031122;28;20029;-76
2023/05/10 00:54:51;;;;;;;13.55;8.98;;;;;;;9.41;96.27;99816.69;5018138;28;20390;-75
2023/05/10 00:57:17;;;;;;;16.05;10.50;;;;;;;9.40;96.80;99805.84;5011294;28;20452;-76
2023/05/10 00:59:42;;;;;;;14.45;8.85;;;;;;;9.38;97.87;99819.31;5010690;28;20030;-74
2023/05/10 01:02:08;;;;;;;20.73;8.80;;;;;;;9.25;98.82;99807.88;5030644;28;20052;-75
2023/05/10 01:04:35;;;;;;;13.10;10.20;;;;;;;9.26;98.13;99797.53;5029344;28;20026;-75
2023/05/10 01:07:01;;;;;;;18.15;10.10;;;;;;;9.25;99.24;99815.41;5030973;28;20022;-75
2023/05/10 01:09:27;;;;;;;20.45;11.27;;;;;;;9.25;100.00;99818.22;5030534;28;20021;-75
2023/05/10 01:11:53;;;;;;;14.10;9.55;;;;;;;9.21;100.00;99812.44;5017562;28;20108;-75
2023/05/10 01:14:20;;;;;;;17.25;11.07;;;;;;;9.20;100.00;99823.94;5011186;28;20488;-74
2023/05/10 01:16:48;;;;;;;20.67;10.65;;;;;;;9.23;100.00;99809.34;5026031;28;20152;-75
2023/05/10 01:19:23;;;;;;;15.38;10.27;;;;;;;9.18;100.00;99815.06;5035030;28;20055;-75
2023/05/10 01:22:33;;;;;;;12.57;9.27;;;;;;;9.11;100.00;99832.22;5033564;28;20040;-75
2023/05/10 01:25:26;;;;;;;18.00;10.98;;;;;;;9.17;100.00;99830.13;5022285;28;20026;-75
2023/05/10 01:28:13;;;;;;;17.30;10.05;;;;;;;9.15;100.00;99833.25;5020134;28;20025;-75
2023/05/10 01:30:47;;;;;;;16.70;10.05;;;;;;;9.16;100.00;99834.06;5025712;28;20036;-76
2023/05/10 01:33:37;;;;;;;14.40;9.43;;;;;;;9.13;100.00;99830.78;5031345;28;20046;-75
2023/05/10 01:36:15;;;;;;;15.15;9.35;;;;;;;9.11;100.00;99833.06;5015158;28;20212;-75
2023/05/10 01:39:01;;;;;;;16.55;11.75;;;;;;;9.12;100.00;99833.91;5014934;28;20408;-76
2023/05/10 01:41:53;;;;;;;18.77;10.65;;;;;;;9.32;100.00;99824.19;5013307;28;20081;-76
2023/05/10 01:44:40;;;;;;;17.00;10.18;;;;;;;9.13;100.00;99824.38;5021973;28;20039;-75
2023/05/10 01:47:23;;;;;;;18.02;10.07;;;;;;;9.11;100.00;99830.28;5014715;28;20088;-76
2023/05/10 01:49:55;;;;;;;21.50;9.77;;;;;;;9.17;100.00;99830.97;5034185;28;20087;-76
2023/05/10 01:52:30;;;;;;;14.15;9.63;;;;;;;9.06;100.00;99829.56;5034346;28;20451;-75
2023/05/10 01:55:02;;;;;;;19.48;12.25;;;;;;;9.13;100.00;99829.97;5032828;28;20029;-76
2023/05/10 01:57:34;;;;;;;18.00;12.18;;;;;;;9.07;100.00;99839.59;5030740;28;20034;-75
2023/05/10 02:00:04;;;;;;;17.75;12.30;;;;;;;9.12;100.00;99842.28;5020911;28;20484;-76
2023/05/10 02:02:44;;;;;;;21.65;12.05;;;;;;;9.11;100.00;99846.19;5023734;28;20030;-76
2023/05/10 02:05:12;;;;;;;23.80;12.45;;;;;;;9.12;100.00;99847.84;5029379;28;20488;-74
2023/05/10 02:07:38;;;;;;;18.80;11.52;;;;;;;9.09;100.00;99849.31;5033321;28;20039;-74
2023/05/10 02:10:07;;;;;;;17.52;11.32;;;;;;;9.07;100.00;99854.38;5033942;28;20040;-76
2023/05/10 02:12:39;;;;;;;23.13;12.50;;;;;;;9.11;100.00;99860.97;5032673;28;20480;-76
2023/05/10 02:15:07;;;;;;;16.17;10.90;;;;;;;9.05;100.00;99853.03;5022897;28;20029;-76
2023/05/10 02:17:35;;;;;;;21.63;12.30;;;;;;;9.09;100.00;99851.25;5032867;28;20026;-75
2023/05/10 02:20:03;;;;;;;30.75;12.88;;;;;;;9.04;100.00;99854.19;5019191;28;20052;-76
2023/05/10 02:22:29;;;;;;;19.02;10.68;;;;;;;9.08;100.00;99856.03;5013964;28;20026;-76
2023/05/10 02:24:57;;;;;;;18.15;11.18;;;;;;;9.08;100.00;99861.59;5025208;28;20029;-76
2023/05/10 02:27:25;;;;;;;17.35;11.25;;;;;;;9.08;100.00;99852.41;5032130;28;20030;-75
2023/05/10 02:29:52;;;;;;;17.63;11.82;;;;;;;9.10;100.00;99864.06;5029740;28;20029;-75
2023/05/10 02:32:19;;;;;;;22.70;12.57;;;;;;;9.07;100.00;99859.97;5013848;28;20033;-76
2023/05/10 02:34:46;;;;;;;17.67;11.25;;;;;;;9.05;100.00;99859.47;5013796;28;20408;-76
2023/05/10 02:37:16;;;;;;;18.52;11.57;;;;;;;9.10;100.00;99864.06;5029261;28;20063;-73
2023/05/10 02:39:45;;;;;;;21.77;10.80;;;;;;;9.06;100.00;99854.69;5013564;28;20022;-75
2023/05/10 02:42:18;;;;;;;25.33;9.88;;;;;;;9.01;100.00;99854.81;5013600;28;20041;-76
2023/05/10 02:44:47;;;;;;;24.30;11.70;;;;;;;8.99;100.00;99857.91;5023365;28;20030;-75
2023/05/10 02:47:12;;;;;;;16.00;10.25;;;;;;;8.96;100.00;99856.56;5028369;28;20109;-75
2023/05/10 02:49:38;;;;;;;18.30;11.35;;;;;;;8.94;100.00;99850.47;5032467;28;20033;-74
2023/05/10 02:52:09;;;;;;;21.23;10.13;;;;;;;9.01;100.00;99861.22;5033184;28;20044;-76
2023/05/10 02:54:45;;;;;;;17.17;10.88;;;;;;;8.94;100.00;99855.25;5022949;28;20117;-75
2023/05/10 02:57:17;;;;;;;18.85;10.63;;;;;;;8.95;100.00;99860.50;5012019;28;20498;-74
2023/05/10 02:59:44;;;;;;;20.50;10.35;;;;;;;8.93;100.00;99853.56;5032710;28;20116;-76
2023/05/10 03:02:11;;;;;;;13.93;10.07;;;;;;;8.98;100.00;99857.06;5031398;28;20037;-75
2023/05/10 03:04:36;;;;;;;17.27;11.32;;;;;;;8.99;100.00;99861.53;5032290;28;20068;-75
2023/05/10 03:07:02;;;;;;;19.63;10.10;;;;;;;9.04;100.00;99857.78;5030262;28;20057;-75
2023/05/10 03:09:28;;;;;;;16.92;10.77;;;;;;;8.99;100.00;99864.31;5017029;28;20030;-75
2023/05/10 03:12:19;;;;;;;16.85;10.15;;;;;;;8.88;100.00;99859.28;5032762;28;20036;-76
2023/05/10 03:14:58;;;;;;;17.35;9.32;;;;;;;8.82;100.00;99853.84;5021761;28;20034;-75
2023/05/10 03:17:41;;;;;;;19.00;11.27;;;;;;;8.85;100.00;99853.19;5031821;28;20025;-75
2023/05/10 03:20:11;;;;;;;18.33;10.45;;;;;;;8.87;100.00;99860.44;5032721;28;20032;-76
2023/05/10 03:22:47;;;;;;;;;;;;;;;8.88;100.00;99867.66;5031735;28;20083;-75
2023/05/10 03:25:16;;;;;;;17.77;10.48;;;;;;;8.81;100.00;99856.94;5018638;28;19924;-75
2023/05/10 03:27:43;;;;;;;14.70;10.18;;;;;;;8.83;100.00;99865.81;5021969;28;20064;-75
2023/05/10 03:30:11;;;;;;;13.65;10.02;;;;;;;8.78;100.00;99863.94;5017722;28;20060;-76
2023/05/10 03:32:37;;;;;;;20.75;10.98;;;;;;;8.90;100.00;99866.22;5032331;28;20036;-75
2023/05/10 03:35:14;;;;;;;19.60;11.57;;;;;;;8.97;100.00;99865.78;5031552;28;20034;-76
2023/05/10 03:37:39;;;;;;;19.73;12.05;;;;;;;8.92;100.00;99875.09;5029917;28;20059;-75
2023/05/10 03:40:06;;;;;;;16.27;11.15;;;;;;;8.97;100.00;99869.38;5030140;28;20053;-76
2023/05/10 03:42:31;;;;;;;15.43;11.43;;;;;;;8.88;100.00;99876.84;5032180;28;20118;-76
2023/05/10 03:44:57;;;;;;;18.38;11.48;;;;;;;8.83;100.00;99872.22;5020044;28;20048;-75
2023/05/10 03:47:22;;;;;;;16.77;11.60;;;;;;;8.91;100.00;99880.97;5027138;28;20414;-75
2023/05/10 03:49:48;;;;;;;16.48;11.00;;;;;;;8.90;100.00;99880.16;5012173;28;20401;-76
2023/05/10 03:52:13;;;;;;;15.25;11.82;;;;;;;8.88;100.00;99874.06;5012175;28;20481;-75
2023/05/10 03:54:39;;;;;;;17.15;11.20;;;;;;;8.80;100.00;99883.16;5013049;28;20034;-76
2023/05/10 03:57:04;;;;;;;20.30;12.45;;;;;;;8.88;100.00;99885.22;5014012;28;20026;-75
2023/05/10 03:59:30;;;;;;;20.23;12.35;;;;;;;8.91;100.00;99887.38;5031006;28;20045;-76
2023/05/10 04:01:55;;;;;;;19.02;12.02;;;;;;;8.91;100.00;99884.59;5029715;28;20029;-76
2023/05/10 04:04:21;;;;;;;22.25;11.77;;;;;;;8.91;100.00;99895.75;5031328;28;20025;-76
2023/05/10 04:06:47;;;;;;;21.75;12.25;;;;;;;8.90;100.00;99887.69;5030480;28;20040;-75
2023/05/10 04:09:13;;;;;;;16.70;12.18;;;;;;;8.84;100.00;99882.22;5030885;28;20033;-74
2023/05/10 04:11:39;;;;;;;18.33;13.75;;;;;;;8.82;100.00;99890.09;5030537;28;20048;-74
2023/05/10 04:14:04;;;;;;;21.33;13.18;;;;;;;8.84;100.00;99893.41;5025423;28;20033;-72
2023/05/10 04:16:30;;;;;;;25.00;14.02;;;;;;;8.91;100.00;99892.13;5026579;28;20037;-72
2023/05/10 04:18:55;;;;;;;19.63;12.23;;;;;;;8.94;100.00;99891.53;5027740;28;20033;-70
2023/05/10 04:21:21;;;;;;;19.63;12.48;;;;;;;8.92;100.00;99897.41;5031527;28;20048;-70
2023/05/10 04:23:46;;;;;;;21.38;11.43;;;;;;;8.93;100.00;99903.78;5030735;28;20017;-72
2023/05/10 04:26:12;;;;;;;22.15;13.73;;;;;;;8.88;100.00;99898.34;5012296;28;20026;-71
2023/05/10 04:28:38;;;;;;;22.42;13.73;;;;;;;8.96;100.00;99903.19;5024490;28;20052;-70
2023/05/10 04:31:05;;;;;;;22.42;13.07;;;;;;;8.93;100.00;99901.84;5015551;28;20026;-72
2023/05/10 04:33:31;;;;;;;20.98;14.48;;;;;;;8.94;100.00;99895.13;5011904;28;20483;-71
2023/05/10 04:35:56;;;;;;;23.02;14.40;;;;;;;8.96;100.00;99897.59;5017492;28;20026;-72
2023/05/10 04:38:22;;;;;;;20.08;12.73;;;;;;;9.02;100.00;99896.34;5012024;28;20025;-71
2023/05/10 04:40:47;;;;;;;20.48;13.90;;;;;;;9.12;100.00;99901.69;5024369;28;20090;-72
2023/05/10 04:43:12;;;;;;;22.10;13.88;;;;;;;9.12;100.00;99893.31;5032396;28;20040;-72
2023/05/10 04:45:38;;;;;;;19.27;13.02;;;;;;;9.22;100.00;99897.81;5025317;28;20025;-72
2023/05/10 04:48:04;;;;;;;24.00;14.05;;;;;;;9.30;100.00;99903.81;5024883;28;20045;-72
2023/05/10 04:50:30;;;;;;;19.33;12.13;;;;;;;9.32;100.00;99910.72;5027132;28;20057;-72
2023/05/10 04:52:55;;;;;;;19.50;13.88;;;;;;;9.33;100.00;99906.78;5020871;28;20108;-72
2023/05/10 04:55:21;;;;;;;26.98;14.05;;;;;;;9.48;100.00;99900.00;5030263;28;20029;-72
2023/05/10 04:57:46;;;;;;;24.13;13.55;;;;;;;9.62;100.00;99896.34;5017516;28;20029;-72
2023/05/10 05:00:12;;;;;;;21.65;14.50;;;;;;;9.75;100.00;99903.81;5018350;28;20493;-71
2023/05/10 05:02:38;;;;;;;24.45;13.38;;;;;;;9.80;99.63;99902.84;5018429;28;20079;-72
2023/05/10 05:05:04;;;;;;;21.83;12.40;;;;;;;9.89;99.71;99906.50;5017281;28;20017;-72
2023/05/10 05:07:30;;;;;;;21.92;13.23;;;;;;;9.80;97.67;99900.06;5028691;28;20101;-72
2023/05/10 05:09:56;;;;;;;18.50;12.80;;;;;;;9.77;98.56;99903.47;5017925;28;20025;-72
2023/05/10 05:12:21;;;;;;;22.35;13.25;;;;;;;9.72;98.03;99898.88;5020992;28;20511;-70
2023/05/10 05:14:47;;;;;;;20.95;11.52;;;;;;;9.59;98.32;99894.16;5021411;28;20030;-72
2023/05/10 05:17:12;;;;;;;18.90;10.75;;;;;;;9.68;98.98;99893.09;5030218;28;20044;-71
2023/05/10 05:19:38;;;;;;;21.55;11.95;;;;;;;9.61;98.84;99898.28;5022675;28;20519;-74
2023/05/10 05:22:03;;;;;;;19.30;11.95;;;;;;;9.60;98.27;99893.84;5024234;28;20126;-74
2023/05/10 05:24:29;;;;;;;17.17;11.35;;;;;;;9.70;97.30;99903.91;5017053;28;20037;-74
2023/05/10 05:26:54;;;;;;;19.02;11.63;;;;;;;9.73;98.98;99894.09;5024247;28;20025;-75
2023/05/10 05:29:19;;;;;;;17.08;11.15;;;;;;;9.78;97.92;99900.38;5021453;28;20033;-73
2023/05/10 05:31:45;;;;;;;18.23;11.73;;;;;;;9.68;97.45;99907.06;5012455;28;20444;-73
2023/05/10 05:34:10;;;;;;;18.83;12.10;;;;;;;9.80;95.47;99909.25;5026523;28;20029;-73
2023/05/10 05:36:39;;;;;;;15.70;10.82;;;;;;;9.83;94.47;99896.63;5019277;28;20041;-74
2023/05/10 05:39:05;;;;;;;16.20;11.02;;;;;;;9.97;93.91;99900.16;5019112;28;20091;-71
2023/05/10 05:41:30;;;;;;;20.30;10.88;;;;;;;10.02;95.43;99903.97;5020007;28;20033;-72
2023/05/10 05:43:56;;;;;;;13.80;10.23;;;;;;;10.01;94.98;99905.94;5023421;28;20057;-71
2023/05/10 05:46:21;;;;;;;19.95;10.75;;;;;;;9.98;92.31;99910.19;5017508;28;20053;-72
2023/05/10 05:48:47;;;;;;;15.10;10.18;;;;;;;9.95;92.62;99913.63;5021701;28;20087;-72
2023/05/10 05:51:12;;;;;;;19.60;10.40;;;;;;;9.85;91.32;99918.66;5020475;28;20479;-72
2023/05/10 05:53:37;;;;;;;18.15;11.48;;;;;;;9.93;94.33;99924.28;5013755;28;20115;-71
2023/05/10 05:56:03;;;;;;;22.10;10.98;;;;;;;9.97;93.02;99919.72;5012422;28;20033;-71
2023/05/10 05:58:29;;;;;;;21.50;10.88;;;;;;;10.06;92.70;99916.16;5020813;28;20037;-72
2023/05/10 06:00:54;;;;;;;17.27;10.65;;;;;;;10.14;93.07;99920.97;5019381;28;20026;-72
2023/05/10 06:03:20;;;;;;;19.08;12.98;;;;;;;10.08;94.58;99920.28;5015415;28;20099;-71
2023/05/10 06:05:46;;;;;;;24.33;12.00;;;;;;;10.22;94.65;99922.97;5021048;28;20045;-72
2023/05/10 06:08:11;;;;;;;27.40;11.57;;;;;;;10.40;94.29;99921.06;5012466;28;20508;-71
2023/05/10 06:10:37;;;;;;;18.73;12.18;;;;;;;10.36;92.82;99914.47;5010534;28;20029;-72
2023/05/10 06:13:02;;;;;;;19.73;12.27;;;;;;;10.27;92.40;99923.97;5014234;28;20646;-71
2023/05/10 06:15:28;;;;;;;17.00;11.07;;;;;;;10.39;93.83;99925.00;5020979;28;20874;-72
2023/05/10 06:17:53;;;;;;;20.83;12.20;;;;;;;10.48;93.78;99933.47;5013021;28;20037;-73
2023/05/10 06:20:19;;;;;;;17.58;11.57;;;;;;;10.43;91.70;99924.38;5014901;28;20042;-74
2023/05/10 06:22:44;;;;;;;19.45;11.82;;;;;;;10.46;92.52;99932.97;5020021;28;20488;-73
2023/05/10 06:25:11;;;;;;;15.27;11.13;;;;;;;10.41;91.37;99927.53;5021692;28;20037;-73
2023/05/10 06:27:36;;;;;;;25.75;10.98;;;;;;;10.37;91.50;99929.25;5022462;28;20480;-74
2023/05/10 06:30:04;;;;;;;19.65;11.73;;;;;;;10.53;91.53;99930.53;5011168;28;20033;-75
2023/05/10 06:32:30;;;;;;;18.27;13.13;;;;;;;10.44;91.48;99928.81;5025145;28;20036;-73
2023/05/10 06:34:55;;;;;;;21.13;11.30;;;;;;;10.47;89.98;99945.78;5021577;28;20481;-74
2023/05/10 06:37:21;;;;;;;13.73;11.00;;;;;;;10.50;90.23;99945.16;5024541;28;20029;-74
2023/05/10 06:39:46;;;;;;;21.40;12.32;;;;;;;10.61;91.31;99930.88;5017008;28;20341;-75
2023/05/10 06:42:11;;;;;;;19.45;12.15;;;;;;;10.57;89.96;99943.88;5011455;28;20507;-75
2023/05/10 06:44:37;;;;;;;17.52;11.05;;;;;;;10.58;89.33;99937.13;5027023;28;20799;-74
2023/05/10 06:47:02;;;;;;;20.40;11.70;;;;;;;10.72;89.09;99940.63;5030990;28;20475;-76
2023/05/10 06:49:28;;;;;;;14.50;11.43;;;;;;;10.62;90.06;99926.94;5019209;28;20163;-74
2023/05/10 06:51:55;;;;;;;17.27;11.48;;;;;;;10.60;89.80;99944.03;5019134;28;20033;-73
2023/05/10 06:54:20;;;;;;;15.07;10.50;;;;;;;10.54;88.45;99942.53;5027073;28;20166;-74
2023/05/10 06:56:46;;;;;;;21.38;10.77;;;;;;;10.58;89.28;99931.53;5043416;28;20369;-74
2023/05/10 06:59:13;;;;;;;19.55;11.30;;;;;;;10.50;89.20;99941.53;5012889;28;20041;-74
2023/05/10 07:01:38;;;;;;;29.00;14.88;;;;;;;10.74;88.36;99929.94;5012749;28;20106;-73
2023/05/10 07:04:04;;;;;;;133.70;34.88;;;;;;;10.72;88.02;99934.22;5027258;28;20116;-76
2023/05/10 07:06:30;;;;;;;18.45;9.80;;;;;;;10.54;88.52;99920.16;5016609;28;20052;-75
2023/05/10 07:08:55;;;;;;;151.15;34.53;;;;;;;10.72;86.89;99939.81;5019285;28;20038;-75
2023/05/10 07:11:21;;;;;;;188.50;40.70;;;;;;;10.85;86.50;99941.66;5013320;28;20030;-77
2023/05/10 07:13:46;;;;;;;19.77;10.90;;;;;;;10.91;87.01;99940.34;5023083;28;20040;-72
2023/05/10 07:16:12;;;;;;;19.17;13.25;;;;;;;11.08;88.11;99942.34;5019879;28;20481;-74
2023/05/10 07:18:37;;;;;;;322.95;234.75;;;;;;;11.06;86.93;99936.25;5013401;28;20438;-73
2023/05/10 07:21:03;;;;;;;24.17;12.73;;;;;;;10.98;86.60;99933.44;5022854;28;20397;-74
2023/05/10 07:23:29;;;;;;;16.98;8.70;;;;;;;10.99;84.61;99940.69;5019521;28;20464;-71
2023/05/10 07:25:57;;;;;;;110.05;22.33;;;;;;;10.92;85.66;99949.56;5019045;28;20029;-73
2023/05/10 07:28:23;;;;;;;46.55;16.08;;;;;;;11.04;86.40;99949.75;5024992;28;20480;-73
2023/05/10 07:30:50;;;;;;;16.40;10.23;;;;;;;11.07;87.84;99948.28;5027056;28;20053;-76
2023/05/10 07:33:15;;;;;;;20.83;10.73;;;;;;;11.20;83.89;99946.47;5018690;28;20037;-77
2023/05/10 07:35:41;;;;;;;29.92;10.43;;;;;;;11.30;84.71;99945.34;5031730;28;20076;-73
2023/05/10 07:38:07;;;;;;;17.95;9.82;;;;;;;11.47;85.94;99952.94;5031677;28;20075;-73
2023/05/10 07:40:32;;;;;;;17.80;11.40;;;;;;;11.65;85.40;99945.34;5030596;28;20053;-74
2023/05/10 07:42:59;;;;;;;14.75;9.32;;;;;;;11.60;82.49;99940.75;5016910;28;20086;-74
2023/05/10 07:45:25;;;;;;;17.65;9.45;;;;;;;11.60;81.80;99943.53;5032134;28;20047;-73
2023/05/10 07:47:50;;;;;;;15.57;9.00;;;;;;;11.54;81.84;99952.44;5030602;28;20103;-75
2023/05/10 07:50:16;;;;;;;17.50;9.85;;;;;;;11.61;83.61;99944.34;5032584;28;20087;-75
2023/05/10 07:52:41;;;;;;;15.95;9.13;;;;;;;11.64;81.18;99955.72;5027382;28;20392;-74
2023/05/10 07:55:07;;;;;;;13.20;10.48;;;;;;;11.70;83.00;99952.75;5015402;28;20455;-76
2023/05/10 07:57:34;;;;;;;13.85;9.40;;;;;;;11.75;82.34;99952.59;5025789;28;20577;-75
2023/05/10 07:59:59;;;;;;;15.60;9.25;;;;;;;11.84;80.88;99955.38;5018772;28;20547;-75
2023/05/10 08:02:25;;;;;;;16.60;9.57;;;;;;;12.00;80.79;99959.28;5021005;28;20054;-75
2023/05/10 08:04:50;;;;;;;18.67;10.88;;;;;;;11.92;80.14;99960.97;5022474;28;20022;-75
2023/05/10 08:07:16;;;;;;;15.23;9.35;;;;;;;12.01;80.75;99962.94;5020965;28;20485;-75
2023/05/10 08:09:41;;;;;;;16.80;8.77;;;;;;;12.11;78.96;99958.97;5021892;28;20469;-75
2023/05/10 08:12:07;;;;;;;27.00;9.50;;;;;;;12.28;78.97;99960.91;5016375;28;20026;-74
2023/05/10 08:14:32;;;;;;;11.65;9.52;;;;;;;12.12;78.43;99958.66;5021890;28;20025;-74
2023/05/10 08:16:57;;;;;;;14.13;8.40;;;;;;;12.06;78.77;99974.00;5015324;28;20029;-74
2023/05/10 08:19:23;;;;;;;13.38;8.52;;;;;;;12.10;78.25;99972.19;5012376;28;20097;-74
2023/05/10 08:21:49;;;;;;;12.93;8.30;;;;;;;12.10;78.15;99971.34;5017700;28;20021;-75
2023/05/10 08:24:14;;;;;;;24.85;12.80;;;;;;;12.15;78.80;99974.81;5023393;28;20025;-74
2023/05/10 08:26:40;;;;;;;15.38;8.90;;;;;;;12.38;77.63;99971.78;5022193;28;20025;-75
2023/05/10 08:29:05;;;;;;;11.25;8.38;;;;;;;12.40;76.17;99975.06;5016559;28;20028;-74
2023/05/10 08:31:31;;;;;;;9.63;8.43;;;;;;;12.45;77.27;99972.09;5021237;28;20029;-75
2023/05/10 08:33:56;;;;;;;13.27;8.73;;;;;;;12.36;75.75;99974.91;5023344;28;20025;-74
2023/05/10 08:36:24;;;;;;;17.98;11.68;;;;;;;12.52;75.04;99970.72;5016356;28;20412;-74
2023/05/10 08:38:53;;;;;;;119.85;80.55;;;;;;;12.55;75.89;99964.44;5025652;28;20075;-74
2023/05/10 08:41:25;;;;;;;18.35;12.13;;;;;;;12.53;75.54;99967.59;5017621;28;20165;-75
2023/05/10 08:43:54;;;;;;;27.00;10.10;;;;;;;12.63;76.25;99967.22;5022558;28;20048;-73
2023/05/10 08:46:22;;;;;;;17.20;9.07;;;;;;;12.63;76.54;99957.97;5013673;28;20037;-74
2023/05/10 08:48:50;;;;;;;15.38;8.40;;;;;;;12.45;75.85;99963.69;5018951;28;20128;-74
2023/05/10 08:51:22;;;;;;;12.90;7.90;;;;;;;12.39;74.14;99962.19;5019193;28;20464;-73
2023/05/10 08:53:47;;;;;;;12.77;8.18;;;;;;;12.35;74.95;99962.03;5016609;28;20033;-72
2023/05/10 08:56:15;;;;;;;14.43;8.00;;;;;;;12.66;74.80;99964.91;5016692;28;20087;-73
2023/05/10 08:58:41;;;;;;;16.15;8.25;;;;;;;12.58;75.81;99960.97;5029089;28;20025;-71
2023/05/10 09:01:07;;;;;;;10.05;7.80;;;;;;;12.46;74.64;99958.88;5031401;28;20084;-70
2023/05/10 09:03:33;;;;;;;13.63;8.38;;;;;;;12.58;74.44;99964.59;5024701;28;20096;-70
2023/05/10 09:05:58;;;;;;;12.90;8.00;;;;;;;12.61;75.03;99960.31;5011582;28;20026;-72
2023/05/10 09:08:27;;;;;;;10.82;7.93;;;;;;;12.73;73.92;99954.78;5012584;28;20025;-72
2023/05/10 09:10:55;;;;;;;17.67;8.18;;;;;;;12.67;74.86;99961.78;5027263;28;20600;-72
2023/05/10 09:13:22;;;;;;;10.07;7.60;;;;;;;12.57;74.60;99953.72;5030679;28;20030;-72
2023/05/10 09:15:48;;;;;;;12.40;7.75;;;;;;;12.59;73.83;99959.81;5028926;28;20429;-72
2023/05/10 09:18:13;;;;;;;10.15;7.70;;;;;;;12.59;72.21;99945.78;5030190;28;20063;-71
2023/05/10 09:20:39;;;;;;;14.27;7.72;;;;;;;12.80;72.61;99947.84;5028086;28;20022;-72
2023/05/10 09:23:05;;;;;;;8.73;7.53;;;;;;;12.93;71.05;99943.97;5030012;28;20029;-71
2023/05/10 09:25:33;;;;;;;10.70;7.80;;;;;;;13.11;70.86;99946.66;5024325;28;20400;-72
2023/05/10 09:27:59;;;;;;;14.30;8.25;;;;;;;13.14;71.97;99945.97;5028022;28;20487;-72
2023/05/10 09:30:26;;;;;;;9.60;7.28;;;;;;;13.22;71.60;99949.91;5025291;28;20032;-74
2023/05/10 09:32:52;;;;;;;12.00;8.38;;;;;;;13.29;72.07;99942.56;5019471;28;20503;-72
2023/05/10 09:35:20;;;;;;;13.75;6.78;;;;;;;13.31;71.45;99939.41;5021509;28;20116;-73
2023/05/10 09:37:51;;;;;;;12.70;7.50;;;;;;;13.37;70.95;99937.22;5019399;28;20021;-72
2023/05/10 09:40:22;;;;;;;11.68;7.30;;;;;;;13.25;70.33;99937.97;5018301;28;20126;-73
2023/05/10 09:42:59;;;;;;;11.93;7.95;;;;;;;13.18;71.24;99939.31;5014615;28;20026;-73
2023/05/10 09:45:27;;;;;;;12.18;7.85;;;;;;;13.15;70.32;99942.81;5020412;28;20516;-72
2023/05/10 09:47:53;;;;;;;10.38;7.80;;;;;;;13.09;70.14;99937.75;5011038;28;20046;-72
2023/05/10 09:50:20;;;;;;;13.32;8.13;;;;;;;13.12;69.60;99932.28;5014748;28;20574;-70
2023/05/10 09:52:58;;;;;;;9.25;8.10;;;;;;;13.16;68.63;99930.41;5025661;28;20086;-71
2023/05/10 09:55:45;;;;;;;13.40;8.40;;;;;;;13.33;69.96;99926.66;5025179;28;20129;-72
2023/05/10 09:58:12;;;;;;;10.63;7.30;;;;;;;13.18;69.08;99921.66;5011887;28;20030;-73
2023/05/10 10:00:39;;;;;;;8.43;6.50;;;;;;;13.05;69.11;99921.59;5021142;28;20025;-73
2023/05/10 10:03:05;;;;;;;11.30;7.75;;;;;;;13.38;68.14;99922.00;5013469;28;20140;-72
2023/05/10 10:05:35;;;;;;;13.40;7.60;;;;;;;13.42;66.31;99917.34;5015836;28;20018;-72
2023/05/10 10:08:04;;;;;;;13.57;8.07;;;;;;;13.38;66.55;99911.59;5019200;28;20013;-73
2023/05/10 10:10:31;;;;;;;10.30;7.18;;;;;;;13.44;66.55;99915.03;5022867;28;20238;-72
2023/05/10 10:12:56;;;;;;;12.23;9.30;;;;;;;13.34;68.48;99917.06;5020191;28;20107;-71
2023/05/10 10:15:23;;;;;;;16.75;9.40;;;;;;;13.31;68.48;99914.94;5020882;28;20025;-72
2023/05/10 10:17:50;;;;;;;12.82;7.72;;;;;;;13.35;67.70;99917.91;5028013;28;20520;-76
2023/05/10 10:20:17;;;;;;;14.15;7.50;;;;;;;13.40;67.17;99922.50;5011937;28;20404;-72
2023/05/10 10:22:43;;;;;;;13.50;8.40;;;;;;;13.67;65.24;99914.69;5018074;28;20417;-72
2023/05/10 10:25:11;;;;;;;12.00;8.98;;;;;;;13.76;66.76;99916.22;5032165;28;20017;-71
2023/05/10 10:27:47;;;;;;;13.60;9.02;;;;;;;13.78;67.11;99921.53;5031470;28;20060;-72
2023/05/10 10:30:32;;;;;;;18.35;8.07;;;;;;;13.74;65.69;99917.72;5031398;28;20021;-72
2023/05/10 10:33:30;;;;;;;13.55;8.45;;;;;;;13.81;66.99;99915.19;5016788;28;20508;-72
2023/05/10 10:35:59;;;;;;;12.30;8.65;;;;;;;14.10;65.59;99913.38;5028850;28;20627;-72
2023/05/10 10:38:25;;;;;;;155.82;24.25;;;;;;;14.24;64.23;99912.25;5028185;28;20040;-73
2023/05/10 10:41:09;;;;;;;17.30;9.93;;;;;;;14.21;65.53;99901.69;5024917;28;20018;-74
2023/05/10 10:43:35;;;;;;;9.02;7.63;;;;;;;14.11;64.15;99903.78;5022930;28;20057;-72
2023/05/10 10:46:17;;;;;;;10.65;7.82;;;;;;;14.21;64.94;99904.50;5020869;28;20069;-71
2023/05/10 10:48:51;;;;;;;12.70;7.43;;;;;;;14.28;63.50;99899.13;5012760;28;20044;-72
2023/05/10 10:51:17;;;;;;;13.05;7.38;;;;;;;14.55;62.60;99894.81;5028446;28;20027;-70
2023/05/10 10:53:43;;;;;;;19.88;9.52;;;;;;;14.58;60.30;99894.09;5021857;28;20471;-72
2023/05/10 10:56:12;;;;;;;10.50;7.20;;;;;;;14.59;62.10;99889.28;5017266;28;20026;-72
2023/05/10 10:58:38;;;;;;;10.77;8.33;;;;;;;14.57;63.42;99891.63;5016091;28;20044;-72
2023/05/10 11:01:12;;;;;;;12.77;7.78;;;;;;;14.40;63.44;99889.88;5013331;28;20022;-73
2023/05/10 11:03:37;;;;;;;9.35;7.22;;;;;;;14.48;64.38;99882.47;5019085;28;20026;-72
2023/05/10 11:06:03;;;;;;;12.60;7.55;;;;;;;14.72;63.73;99890.97;5017488;28;20704;-72
2023/05/10 11:08:30;;;;;;;11.80;7.40;;;;;;;14.57;60.93;99880.38;5016176;28;20030;-71
2023/05/10 11:10:59;;;;;;;11.35;6.82;;;;;;;14.74;60.59;99890.59;5025210;28;20025;-72
2023/05/10 11:13:44;;;;;;;9.50;7.40;;;;;;;15.08;61.78;99877.19;5015067;28;21347;-74
2023/05/10 11:16:14;;;;;;;9.25;6.95;;;;;;;15.30;60.76;99867.34;5023837;28;20014;-74
2023/05/10 11:18:40;;;;;;;10.75;6.95;;;;;;;15.19;60.90;99877.50;5028103;28;20047;-73
2023/05/10 11:21:11;;;;;;;9.80;7.10;;;;;;;14.77;61.46;99886.28;5013107;28;20477;-72
2023/05/10 11:23:40;;;;;;;8.57;7.75;;;;;;;14.63;62.22;99878.97;5017166;28;20072;-73
2023/05/10 11:26:09;;;;;;;8.57;7.43;;;;;;;14.58;59.99;99876.38;5015498;28;20108;-75